sensor_id;sensor_type;location;lat;lon;timestamp;pressure;altitude;pressure_sealevel;temperature;humidity
9460;BME280;4768;42.664;23.240;2023-04-05T00:02:22;-9386.31;;;-0.83;100.00
9460;BME280;4768;42.664;23.240;2023-04-05T00:04:55;-9389.56;;;-0.71;100.00
9460;BME280;4768;42.664;23.240;2023-04-05T00:07:22;-9384.78;;;-0.88;100.00
9460;BME280;4768;42.664;23.240;2023-04-05T00:09:50;-9386.63;;;-0.82;100.00
9460;BME280;4768;42.664;23.240;2023-04-05T00:12:17;-9388.88;;;-0.74;100.00
9460;BME280;4768;42.664;23.240;2023-04-05T00:14:44;-9387.88;;;-0.77;100.00
9460;BME280;4768;42.664;23.240;2023-04-05T00:17:11;-9386.47;;;-0.82;100.00
9460;BME280;4768;42.664;23.240;2023-04-05T00:19:38;-9389.84;;;-0.70;100.00
9460;BME280;4768;42.664;23.240;2023-04-05T00:22:06;-9386.91;;;-0.81;100.00
9460;BME280;4768;42.664;23.240;2023-04-05T00:24:35;-9387.75;;;-0.78;100.00
9460;BME280;4768;42.664;23.240;2023-04-05T00:27:03;-9383.38;;;-0.93;100.00
9460;BME280;4768;42.664;23.240;2023-04-05T00:29:30;-9387.31;;;-0.79;100.00
9460;BME280;4768;42.664;23.240;2023-04-05T00:31:57;-9387.03;;;-0.80;100.00
9460;BME280;4768;42.664;23.240;2023-04-05T00:34:23;-9385.34;;;-0.86;100.00
9460;BME280;4768;42.664;23.240;2023-04-05T00:36:50;-9384.22;;;-0.90;100.00
9460;BME280;4768;42.664;23.240;2023-04-05T00:39:18;-9384.91;;;-0.88;100.00
9460;BME280;4768;42.664;23.240;2023-04-05T00:41:45;-9384.22;;;-0.90;100.00
9460;BME280;4768;42.664;23.240;2023-04-05T00:44:11;-9385.78;;;-0.85;100.00
9460;BME280;4768;42.664;23.240;2023-04-05T00:46:38;-9384.06;;;-0.91;100.00
9460;BME280;4768;42.664;23.240;2023-04-05T00:49:05;-9386.19;;;-0.83;100.00
9460;BME280;4768;42.664;23.240;2023-04-05T00:51:32;-9385.06;;;-0.87;100.00
9460;BME280;4768;42.664;23.240;2023-04-05T00:54:00;-9385.06;;;-0.87;100.00
9460;BME280;4768;42.664;23.240;2023-04-05T00:56:29;-9386.75;;;-0.81;100.00
9460;BME280;4768;42.664;23.240;2023-04-05T00:58:56;-9387.47;;;-0.79;100.00
9460;BME280;4768;42.664;23.240;2023-04-05T01:01:24;-9385.78;;;-0.85;100.00
9460;BME280;4768;42.664;23.240;2023-04-05T01:03:53;-9386.63;;;-0.82;100.00
9460;BME280;4768;42.664;23.240;2023-04-05T01:06:46;-9386.06;;;-0.84;100.00
9460;BME280;4768;42.664;23.240;2023-04-05T01:09:26;-9386.19;;;-0.83;100.00
9460;BME280;4768;42.664;23.240;2023-04-05T01:12:02;-9387.16;;;-0.80;100.00
9460;BME280;4768;42.664;23.240;2023-04-05T01:14:30;-9387.31;;;-0.79;100.00
9460;BME280;4768;42.664;23.240;2023-04-05T01:16:56;-9388.72;;;-0.74;100.00
9460;BME280;4768;42.664;23.240;2023-04-05T01:19:26;-9387.31;;;-0.79;100.00
9460;BME280;4768;42.664;23.240;2023-04-05T01:25:05;-9386.06;;;-0.84;100.00
9460;BME280;4768;42.664;23.240;2023-04-05T01:27:54;-9387.88;;;-0.77;100.00
9460;BME280;4768;42.664;23.240;2023-04-05T01:30:25;-9386.75;;;-0.81;100.00
9460;BME280;4768;42.664;23.240;2023-04-05T01:33:01;-9389.00;;;-0.73;100.00
9460;BME280;4768;42.664;23.240;2023-04-05T01:35:38;-9390.13;;;-0.69;100.00
9460;BME280;4768;42.664;23.240;2023-04-05T01:38:08;-9389.84;;;-0.70;100.00
9460;BME280;4768;42.664;23.240;2023-04-05T01:40:39;-9390.13;;;-0.69;100.00
9460;BME280;4768;42.664;23.240;2023-04-05T01:43:12;-9391.81;;;-0.63;100.00
9460;BME280;4768;42.664;23.240;2023-04-05T01:45:40;-9391.41;;;-0.65;100.00
9460;BME280;4768;42.664;23.240;2023-04-05T01:48:07;-9391.25;;;-0.65;100.00
9460;BME280;4768;42.664;23.240;2023-04-05T01:50:34;-9391.41;;;-0.65;100.00
9460;BME280;4768;42.664;23.240;2023-04-05T01:53:01;-9391.69;;;-0.64;100.00
9460;BME280;4768;42.664;23.240;2023-04-05T01:55:28;-9392.09;;;-0.62;100.00
9460;BME280;4768;42.664;23.240;2023-04-05T01:57:56;-9392.09;;;-0.62;100.00
9460;BME280;4768;42.664;23.240;2023-04-05T02:00:23;-9392.09;;;-0.62;100.00
9460;BME280;4768;42.664;23.240;2023-04-05T02:02:51;-9391.53;;;-0.64;100.00
9460;BME280;4768;42.664;23.240;2023-04-05T02:05:18;-9392.25;;;-0.62;100.00
9460;BME280;4768;42.664;23.240;2023-04-05T02:07:44;-9393.38;;;-0.58;100.00
9460;BME280;4768;42.664;23.240;2023-04-05T02:10:11;-9389.28;;;-0.72;100.00
9460;BME280;4768;42.664;23.240;2023-04-05T02:12:38;-9390.69;;;-0.67;100.00
9460;BME280;4768;42.664;23.240;2023-04-05T02:15:05;-9390.69;;;-0.67;100.00
9460;BME280;4768;42.664;23.240;2023-04-05T02:17:32;-9390.69;;;-0.67;100.00
9460;BME280;4768;42.664;23.240;2023-04-05T02:20:05;-9390.69;;;-0.67;100.00
9460;BME280;4768;42.664;23.240;2023-04-05T02:22:33;-9391.41;;;-0.65;100.00
9460;BME280;4768;42.664;23.240;2023-04-05T02:25:01;-9392.38;;;-0.61;100.00
9460;BME280;4768;42.664;23.240;2023-04-05T02:27:28;-9390.41;;;-0.68;100.00
9460;BME280;4768;42.664;23.240;2023-04-05T02:29:55;-9392.53;;;-0.61;100.00
9460;BME280;4768;42.664;23.240;2023-04-05T02:32:22;-9393.78;;;-0.56;100.00
9460;BME280;4768;42.664;23.240;2023-04-05T02:34:48;-9392.25;;;-0.62;100.00
9460;BME280;4768;42.664;23.240;2023-04-05T02:37:18;-9394.91;;;-0.52;100.00
9460;BME280;4768;42.664;23.240;2023-04-05T02:39:44;-9392.94;;;-0.59;100.00
9460;BME280;4768;42.664;23.240;2023-04-05T02:42:11;-9394.34;;;-0.54;100.00
9460;BME280;4768;42.664;23.240;2023-04-05T02:44:38;-9394.06;;;-0.55;100.00
9460;BME280;4768;42.664;23.240;2023-04-05T02:47:05;-9395.34;;;-0.51;100.00
9460;BME280;4768;42.664;23.240;2023-04-05T02:49:31;-9393.78;;;-0.56;100.00
9460;BME280;4768;42.664;23.240;2023-04-05T02:51:58;-9394.06;;;-0.55;100.00
9460;BME280;4768;42.664;23.240;2023-04-05T02:54:26;-9392.81;;;-0.60;100.00
9460;BME280;4768;42.664;23.240;2023-04-05T02:56:53;-9392.09;;;-0.62;100.00
9460;BME280;4768;42.664;23.240;2023-04-05T02:59:22;-9390.56;;;-0.68;100.00
9460;BME280;4768;42.664;23.240;2023-04-05T03:01:48;-9392.09;;;-0.62;100.00
9460;BME280;4768;42.664;23.240;2023-04-05T03:04:15;-9394.34;;;-0.54;100.00
9460;BME280;4768;42.664;23.240;2023-04-05T03:06:43;-9392.81;;;-0.60;100.00
9460;BME280;4768;42.664;23.240;2023-04-05T03:09:13;-9393.78;;;-0.56;100.00
9460;BME280;4768;42.664;23.240;2023-04-05T03:11:41;-9392.94;;;-0.59;100.00
9460;BME280;4768;42.664;23.240;2023-04-05T03:14:07;-9394.34;;;-0.54;100.00
9460;BME280;4768;42.664;23.240;2023-04-05T03:16:36;-9394.22;;;-0.55;100.00
9460;BME280;4768;42.664;23.240;2023-04-05T03:19:04;-9392.81;;;-0.60;100.00
9460;BME280;4768;42.664;23.240;2023-04-05T03:21:31;-9389.84;;;-0.70;100.00
9460;BME280;4768;42.664;23.240;2023-04-05T03:23:59;-9392.94;;;-0.59;100.00
9460;BME280;4768;42.664;23.240;2023-04-05T03:26:26;-9393.94;;;-0.56;100.00
9460;BME280;4768;42.664;23.240;2023-04-05T03:28:54;-9392.81;;;-0.60;100.00
9460;BME280;4768;42.664;23.240;2023-04-05T03:31:21;-9393.50;;;-0.57;100.00
9460;BME280;4768;42.664;23.240;2023-04-05T03:33:47;-9392.81;;;-0.60;100.00
9460;BME280;4768;42.664;23.240;2023-04-05T03:36:14;-9392.81;;;-0.60;100.00
9460;BME280;4768;42.664;23.240;2023-04-05T03:38:43;-9391.69;;;-0.64;100.00
9460;BME280;4768;42.664;23.240;2023-04-05T03:41:10;-9391.25;;;-0.65;100.00
9460;BME280;4768;42.664;23.240;2023-04-05T03:43:36;-9387.16;;;-0.80;100.00
9460;BME280;4768;42.664;23.240;2023-04-05T03:46:05;-9390.13;;;-0.69;100.00
9460;BME280;4768;42.664;23.240;2023-04-05T03:48:31;-9389.16;;;-0.73;100.00
9460;BME280;4768;42.664;23.240;2023-04-05T03:50:58;-9389.84;;;-0.70;100.00
9460;BME280;4768;42.664;23.240;2023-04-05T03:53:25;-9390.28;;;-0.69;100.00
9460;BME280;4768;42.664;23.240;2023-04-05T03:55:53;-9389.28;;;-0.72;100.00
9460;BME280;4768;42.664;23.240;2023-04-05T03:58:20;-9389.72;;;-0.71;100.00
9460;BME280;4768;42.664;23.240;2023-04-05T04:00:47;-9390.00;;;-0.70;100.00
9460;BME280;4768;42.664;23.240;2023-04-05T04:03:16;-9390.41;;;-0.68;100.00
9460;BME280;4768;42.664;23.240;2023-04-05T04:05:42;-9390.97;;;-0.66;100.00
9460;BME280;4768;42.664;23.240;2023-04-05T04:08:09;-9392.38;;;-0.61;100.00
9460;BME280;4768;42.664;23.240;2023-04-05T04:10:38;-9392.09;;;-0.62;100.00
9460;BME280;4768;42.664;23.240;2023-04-05T04:13:04;-9393.66;;;-0.57;100.00
9460;BME280;4768;42.664;23.240;2023-04-05T04:15:31;-9393.38;;;-0.58;100.00
9460;BME280;4768;42.664;23.240;2023-04-05T04:17:58;-9394.22;;;-0.55;100.00
9460;BME280;4768;42.664;23.240;2023-04-05T04:20:26;-9395.34;;;-0.51;100.00
9460;BME280;4768;42.664;23.240;2023-04-05T04:22:53;-9395.47;;;-0.50;100.00
9460;BME280;4768;42.664;23.240;2023-04-05T04:25:19;-9391.97;;;-0.63;100.00
9460;BME280;4768;42.664;23.240;2023-04-05T04:27:46;-9393.94;;;-0.56;100.00
9460;BME280;4768;42.664;23.240;2023-04-05T04:30:14;-9393.78;;;-0.56;100.00
9460;BME280;4768;42.664;23.240;2023-04-05T04:32:41;-9394.78;;;-0.53;100.00
9460;BME280;4768;42.664;23.240;2023-04-05T04:35:20;-9395.34;;;-0.51;100.00
9460;BME280;4768;42.664;23.240;2023-04-05T04:37:54;-9397.31;;;-0.44;100.00
9460;BME280;4768;42.664;23.240;2023-04-05T04:40:22;-9397.16;;;-0.45;100.00
9460;BME280;4768;42.664;23.240;2023-04-05T04:42:50;-9396.19;;;-0.48;100.00
9460;BME280;4768;42.664;23.240;2023-04-05T04:45:18;-9397.59;;;-0.43;100.00
9460;BME280;4768;42.664;23.240;2023-04-05T04:47:46;-9398.44;;;-0.40;100.00
9460;BME280;4768;42.664;23.240;2023-04-05T04:50:13;-9397.31;;;-0.44;100.00
9460;BME280;4768;42.664;23.240;2023-04-05T04:52:41;-9396.31;;;-0.48;100.00
9460;BME280;4768;42.664;23.240;2023-04-05T04:55:09;-9397.88;;;-0.42;100.00
9460;BME280;4768;42.664;23.240;2023-04-05T04:57:38;-9398.00;;;-0.42;100.00
9460;BME280;4768;42.664;23.240;2023-04-05T05:00:06;-9393.94;;;-0.56;100.00
9460;BME280;4768;42.664;23.240;2023-04-05T05:02:37;-9398.28;;;-0.41;100.00
9460;BME280;4768;42.664;23.240;2023-04-05T05:05:05;-9395.91;;;-0.49;100.00
9460;BME280;4768;42.664;23.240;2023-04-05T05:07:33;-9394.78;;;-0.53;100.00
9460;BME280;4768;42.664;23.240;2023-04-05T05:10:00;-9398.84;;;-0.39;100.00
9460;BME280;4768;42.664;23.240;2023-04-05T05:12:28;-9400.13;;;-0.34;100.00
9460;BME280;4768;42.664;23.240;2023-04-05T05:14:55;-9399.44;;;-0.37;100.00
9460;BME280;4768;42.664;23.240;2023-04-05T05:17:22;-9399.28;;;-0.37;100.00
9460;BME280;4768;42.664;23.240;2023-04-05T05:19:49;-9399.44;;;-0.37;100.00
9460;BME280;4768;42.664;23.240;2023-04-05T05:22:16;-9401.13;;;-0.31;100.00
9460;BME280;4768;42.664;23.240;2023-04-05T05:24:43;-9402.81;;;-0.25;100.00
9460;BME280;4768;42.664;23.240;2023-04-05T05:27:10;-9401.53;;;-0.29;100.00
9460;BME280;4768;42.664;23.240;2023-04-05T05:29:39;-9404.34;;;-0.19;100.00
9460;BME280;4768;42.664;23.240;2023-04-05T05:32:05;-9402.53;;;-0.26;100.00
9460;BME280;4768;42.664;23.240;2023-04-05T05:34:33;-9407.31;;;-0.09;100.00
9460;BME280;4768;42.664;23.240;2023-04-05T05:37:01;-9409.13;;;-0.02;100.00
9460;BME280;4768;42.664;23.240;2023-04-05T05:39:27;-9409.28;;;-0.02;100.00
9460;BME280;4768;42.664;23.240;2023-04-05T05:41:54;-9410.53;;;0.02;100.00
9460;BME280;4768;42.664;23.240;2023-04-05T05:44:21;-9414.06;;;0.15;100.00
9460;BME280;4768;42.664;23.240;2023-04-05T05:46:49;-9414.91;;;0.18;100.00
9460;BME280;4768;42.664;23.240;2023-04-05T05:49:15;-9413.22;;;0.12;100.00
9460;BME280;4768;42.664;23.240;2023-04-05T05:51:42;-9418.16;;;0.29;100.00
9460;BME280;4768;42.664;23.240;2023-04-05T05:54:09;-9419.56;;;0.34;100.00
9460;BME280;4768;42.664;23.240;2023-04-05T05:56:35;-9418.28;;;0.30;100.00
9460;BME280;4768;42.664;23.240;2023-04-05T05:59:02;-9422.09;;;0.43;100.00
9460;BME280;4768;42.664;23.240;2023-04-05T06:01:29;-9423.94;;;0.49;100.00
9460;BME280;4768;42.664;23.240;2023-04-05T06:04:00;-9420.25;;;0.37;100.00
9460;BME280;4768;42.664;23.240;2023-04-05T06:06:26;-9423.94;;;0.49;100.00
9460;BME280;4768;42.664;23.240;2023-04-05T06:08:54;-9425.34;;;0.54;100.00
9460;BME280;4768;42.664;23.240;2023-04-05T06:11:21;-9421.94;;;0.43;100.00
9460;BME280;4768;42.664;23.240;2023-04-05T06:13:49;-9427.31;;;0.61;100.00
9460;BME280;4768;42.664;23.240;2023-04-05T06:16:16;-9419.84;;;0.35;100.00
9460;BME280;4768;42.664;23.240;2023-04-05T06:18:43;-9423.66;;;0.48;100.00
9460;BME280;4768;42.664;23.240;2023-04-05T06:21:12;-9425.63;;;0.55;100.00
9460;BME280;4768;42.664;23.240;2023-04-05T06:23:39;-9428.72;;;0.66;100.00
9460;BME280;4768;42.664;23.240;2023-04-05T06:26:06;-9427.03;;;0.60;100.00
9460;BME280;4768;42.664;23.240;2023-04-05T06:28:33;-9425.47;;;0.55;100.00
9460;BME280;4768;42.664;23.240;2023-04-05T06:30:59;-9434.22;;;0.86;100.00
9460;BME280;4768;42.664;23.240;2023-04-05T06:33:26;-9439.16;;;1.03;100.00
9460;BME280;4768;42.664;23.240;2023-04-05T06:35:53;-9442.09;;;1.13;100.00
9460;BME280;4768;42.664;23.240;2023-04-05T06:38:21;-9441.69;;;1.12;100.00
9460;BME280;4768;42.664;23.240;2023-04-05T06:40:48;-9437.31;;;0.96;100.00
9460;BME280;4768;42.664;23.240;2023-04-05T06:43:15;-9433.78;;;0.84;100.00
9460;BME280;4768;42.664;23.240;2023-04-05T06:45:42;-9437.75;;;0.98;100.00
9460;BME280;4768;42.664;23.240;2023-04-05T06:48:08;-9439.00;;;1.02;100.00
9460;BME280;4768;42.664;23.240;2023-04-05T06:50:35;-9441.25;;;1.10;100.00
9460;BME280;4768;42.664;23.240;2023-04-05T06:53:02;-9449.72;;;1.40;100.00
9460;BME280;4768;42.664;23.240;2023-04-05T06:55:31;-9454.09;;;1.55;100.00
9460;BME280;4768;42.664;23.240;2023-04-05T06:57:57;-9454.22;;;1.56;100.00
9460;BME280;4768;42.664;23.240;2023-04-05T07:00:24;-9445.06;;;1.24;100.00
9460;BME280;4768;42.664;23.240;2023-04-05T07:02:51;-9456.91;;;1.65;100.00
9460;BME280;4768;42.664;23.240;2023-04-05T07:05:18;-9452.97;;;1.51;100.00
9460;BME280;4768;42.664;23.240;2023-04-05T07:07:44;-9448.44;;;1.36;100.00
9460;BME280;4768;42.664;23.240;2023-04-05T07:10:13;-9441.53;;;1.11;100.00
9460;BME280;4768;42.664;23.240;2023-04-05T07:12:41;-9446.34;;;1.28;100.00
9460;BME280;4768;42.664;23.240;2023-04-05T07:15:09;-9450.00;;;1.41;100.00
9460;BME280;4768;42.664;23.240;2023-04-05T07:17:36;-9450.56;;;1.43;100.00
9460;BME280;4768;42.664;23.240;2023-04-05T07:20:03;-9455.22;;;1.59;100.00
9460;BME280;4768;42.664;23.240;2023-04-05T07:22:32;-9447.88;;;1.34;100.00
9460;BME280;4768;42.664;23.240;2023-04-05T07:25:00;-9445.91;;;1.27;100.00
9460;BME280;4768;42.664;23.240;2023-04-05T07:27:27;-9450.28;;;1.42;100.00
9460;BME280;4768;42.664;23.240;2023-04-05T07:29:56;-9431.69;;;0.77;100.00
9460;BME280;4768;42.664;23.240;2023-04-05T07:32:23;-9442.66;;;1.15;100.00
9460;BME280;4768;42.664;23.240;2023-04-05T07:34:49;-9447.59;;;1.33;100.00
9460;BME280;4768;42.664;23.240;2023-04-05T07:37:16;-9443.22;;;1.17;100.00
9460;BME280;4768;42.664;23.240;2023-04-05T07:39:43;-9447.59;;;1.33;100.00
9460;BME280;4768;42.664;23.240;2023-04-05T07:42:10;-9440.28;;;1.07;100.00
9460;BME280;4768;42.664;23.240;2023-04-05T07:44:36;-9437.03;;;0.95;100.00
9460;BME280;4768;42.664;23.240;2023-04-05T07:47:04;-9431.13;;;0.75;100.00
9460;BME280;4768;42.664;23.240;2023-04-05T07:49:31;-9434.63;;;0.87;100.00
9460;BME280;4768;42.664;23.240;2023-04-05T07:51:59;-9440.56;;;1.08;100.00
9460;BME280;4768;42.664;23.240;2023-04-05T07:54:25;-9442.53;;;1.15;100.00
9460;BME280;4768;42.664;23.240;2023-04-05T07:56:52;-9440.84;;;1.09;100.00
9460;BME280;4768;42.664;23.240;2023-04-05T07:59:20;-9438.59;;;1.01;100.00
9460;BME280;4768;42.664;23.240;2023-04-05T08:01:47;-9439.44;;;1.04;100.00
9460;BME280;4768;42.664;23.240;2023-04-05T08:04:15;-9440.84;;;1.09;100.00
9460;BME280;4768;42.664;23.240;2023-04-05T08:06:41;-9442.09;;;1.13;100.00
9460;BME280;4768;42.664;23.240;2023-04-05T08:09:09;-9441.13;;;1.10;100.00
9460;BME280;4768;42.664;23.240;2023-04-05T08:11:36;-9434.91;;;0.88;100.00
9460;BME280;4768;42.664;23.240;2023-04-05T08:14:03;-9437.19;;;0.96;100.00
9460;BME280;4768;42.664;23.240;2023-04-05T08:16:31;-9438.88;;;1.02;100.00
9460;BME280;4768;42.664;23.240;2023-04-05T08:18:58;-9436.03;;;0.92;100.00
9460;BME280;4768;42.664;23.240;2023-04-05T08:21:26;-9441.25;;;1.10;100.00
9460;BME280;4768;42.664;23.240;2023-04-05T08:23:52;-9441.41;;;1.11;100.00
9460;BME280;4768;42.664;23.240;2023-04-05T08:26:19;-9438.72;;;1.01;100.00
9460;BME280;4768;42.664;23.240;2023-04-05T08:28:46;-9440.13;;;1.06;100.00
9460;BME280;4768;42.664;23.240;2023-04-05T08:31:13;-9441.69;;;1.12;100.00
9460;BME280;4768;42.664;23.240;2023-04-05T08:33:39;-9443.94;;;1.20;100.00
9460;BME280;4768;42.664;23.240;2023-04-05T08:36:07;-9439.44;;;1.04;100.00
9460;BME280;4768;42.664;23.240;2023-04-05T08:38:35;-9430.69;;;0.73;100.00
9460;BME280;4768;42.664;23.240;2023-04-05T08:41:13;-9432.09;;;0.78;100.00
9460;BME280;4768;42.664;23.240;2023-04-05T08:43:55;-9431.13;;;0.75;100.00
9460;BME280;4768;42.664;23.240;2023-04-05T08:46:23;-9434.06;;;0.85;100.00
9460;BME280;4768;42.664;23.240;2023-04-05T08:48:52;-9440.28;;;1.07;100.00
9460;BME280;4768;42.664;23.240;2023-04-05T08:51:19;-9444.22;;;1.21;100.00
9460;BME280;4768;42.664;23.240;2023-04-05T08:53:48;-9438.31;;;1.00;100.00
9460;BME280;4768;42.664;23.240;2023-04-05T08:56:17;-9438.44;;;1.00;100.00
9460;BME280;4768;42.664;23.240;2023-04-05T08:58:47;-9439.44;;;1.04;100.00
9460;BME280;4768;42.664;23.240;2023-04-05T09:01:19;-9445.50;;;1.25;100.00
9460;BME280;4768;42.664;23.240;2023-04-05T09:03:48;-9447.19;;;1.31;100.00
9460;BME280;4768;42.664;23.240;2023-04-05T09:06:17;-9445.78;;;1.26;100.00
9460;BME280;4768;42.664;23.240;2023-04-05T09:08:45;-9446.34;;;1.28;100.00
9460;BME280;4768;42.664;23.240;2023-04-05T09:11:14;-9444.50;;;1.22;100.00
9460;BME280;4768;42.664;23.240;2023-04-05T09:13:42;-9444.22;;;1.21;100.00
9460;BME280;4768;42.664;23.240;2023-04-05T09:16:09;-9445.63;;;1.26;100.00
9460;BME280;4768;42.664;23.240;2023-04-05T09:18:36;-9450.56;;;1.43;100.00
9460;BME280;4768;42.664;23.240;2023-04-05T09:21:03;-9448.44;;;1.36;100.00
9460;BME280;4768;42.664;23.240;2023-04-05T09:23:30;-9441.13;;;1.10;100.00
9460;BME280;4768;42.664;23.240;2023-04-05T09:25:57;-9442.25;;;1.14;100.00
9460;BME280;4768;42.664;23.240;2023-04-05T09:28:39;-9442.25;;;1.14;100.00
9460;BME280;4768;42.664;23.240;2023-04-05T09:31:05;-9443.09;;;1.17;100.00
9460;BME280;4768;42.664;23.240;2023-04-05T09:33:33;-9446.34;;;1.28;100.00
9460;BME280;4768;42.664;23.240;2023-04-05T09:35:59;-9447.03;;;1.31;100.00
9460;BME280;4768;42.664;23.240;2023-04-05T09:38:41;-9446.91;;;1.30;100.00
9460;BME280;4768;42.664;23.240;2023-04-05T09:41:08;-9452.13;;;1.48;100.00
9460;BME280;4768;42.664;23.240;2023-04-05T09:43:38;-9454.09;;;1.55;100.00
9460;BME280;4768;42.664;23.240;2023-04-05T09:46:05;-9452.81;;;1.51;100.00
9460;BME280;4768;42.664;23.240;2023-04-05T09:48:50;-9444.50;;;1.22;100.00
9460;BME280;4768;42.664;23.240;2023-04-05T09:51:17;-9451.00;;;1.44;100.00
9460;BME280;4768;42.664;23.240;2023-04-05T09:53:58;-9448.31;;;1.35;100.00
9460;BME280;4768;42.664;23.240;2023-04-05T09:56:25;-9456.22;;;1.63;100.00
9460;BME280;4768;42.664;23.240;2023-04-05T09:58:57;-9448.59;;;1.36;100.00
9460;BME280;4768;42.664;23.240;2023-04-05T10:01:26;-9445.34;;;1.25;100.00
9460;BME280;4768;42.664;23.240;2023-04-05T10:03:56;-9440.56;;;1.08;100.00
9460;BME280;4768;42.664;23.240;2023-04-05T10:06:23;-9445.34;;;1.25;100.00
9460;BME280;4768;42.664;23.240;2023-04-05T10:08:50;-9449.88;;;1.41;100.00
9460;BME280;4768;42.664;23.240;2023-04-05T10:11:17;-9453.94;;;1.55;100.00
9460;BME280;4768;42.664;23.240;2023-04-05T10:13:45;-9452.69;;;1.50;100.00
9460;BME280;4768;42.664;23.240;2023-04-05T10:16:19;-9445.34;;;1.25;100.00
9460;BME280;4768;42.664;23.240;2023-04-05T10:18:49;-9459.72;;;1.75;100.00
9460;BME280;4768;42.664;23.240;2023-04-05T10:21:20;-9450.84;;;1.44;100.00
9460;BME280;4768;42.664;23.240;2023-04-05T10:23:53;-9450.84;;;1.44;100.00
9460;BME280;4768;42.664;23.240;2023-04-05T10:26:25;-9448.03;;;1.34;100.00
9460;BME280;4768;42.664;23.240;2023-04-05T10:29:01;-9450.00;;;1.41;100.00
9460;BME280;4768;42.664;23.240;2023-04-05T10:31:41;-9439.28;;;1.03;100.00
9460;BME280;4768;42.664;23.240;2023-04-05T10:34:15;-9446.63;;;1.29;100.00
9460;BME280;4768;42.664;23.240;2023-04-05T10:36:49;-9451.84;;;1.47;100.00
9460;BME280;4768;42.664;23.240;2023-04-05T10:39:24;-9450.28;;;1.42;100.00
9460;BME280;4768;42.664;23.240;2023-04-05T10:41:52;-9441.97;;;1.13;100.00
9460;BME280;4768;42.664;23.240;2023-04-05T10:44:20;-9445.63;;;1.26;100.00
9460;BME280;4768;42.664;23.240;2023-04-05T10:46:49;-9444.38;;;1.21;100.00
9460;BME280;4768;42.664;23.240;2023-04-05T10:49:21;-9442.94;;;1.16;100.00
9460;BME280;4768;42.664;23.240;2023-04-05T10:51:49;-9445.91;;;1.27;100.00
9460;BME280;4768;42.664;23.240;2023-04-05T10:54:16;-9460.72;;;1.79;100.00
9460;BME280;4768;42.664;23.240;2023-04-05T10:56:45;-9450.84;;;1.44;100.00
9460;BME280;4768;42.664;23.240;2023-04-05T10:59:12;-9456.78;;;1.65;100.00
9460;BME280;4768;42.664;23.240;2023-04-05T11:01:40;-9453.09;;;1.52;100.00
9460;BME280;4768;42.664;23.240;2023-04-05T11:04:13;-9450.84;;;1.44;100.00
9460;BME280;4768;42.664;23.240;2023-04-05T11:06:40;-9458.47;;;1.71;100.00
9460;BME280;4768;42.664;23.240;2023-04-05T11:09:11;-9454.94;;;1.58;100.00
9460;BME280;4768;42.664;23.240;2023-04-05T11:11:41;-9455.34;;;1.60;100.00
9460;BME280;4768;42.664;23.240;2023-04-05T11:14:19;-9457.06;;;1.66;100.00
9460;BME280;4768;42.664;23.240;2023-04-05T11:16:47;-9455.34;;;1.60;100.00
9460;BME280;4768;42.664;23.240;2023-04-05T11:19:19;-9452.41;;;1.49;100.00
9460;BME280;4768;42.664;23.240;2023-04-05T11:21:46;-9448.59;;;1.36;100.00
9460;BME280;4768;42.664;23.240;2023-04-05T11:24:13;-9443.94;;;1.20;100.00
9460;BME280;4768;42.664;23.240;2023-04-05T11:26:54;-9448.03;;;1.34;100.00
9460;BME280;4768;42.664;23.240;2023-04-05T11:29:46;-9459.72;;;1.75;100.00
9460;BME280;4768;42.664;23.240;2023-04-05T11:32:16;-9456.34;;;1.63;100.00
9460;BME280;4768;42.664;23.240;2023-04-05T11:34:56;-9456.06;;;1.62;100.00
9460;BME280;4768;42.664;23.240;2023-04-05T11:37:52;-9454.94;;;1.58;100.00
9460;BME280;4768;42.664;23.240;2023-04-05T11:40:23;-9455.66;;;1.61;100.00
9460;BME280;4768;42.664;23.240;2023-04-05T11:42:58;-9453.94;;;1.55;100.00
9460;BME280;4768;42.664;23.240;2023-04-05T11:45:25;-9453.53;;;1.53;100.00
9460;BME280;4768;42.664;23.240;2023-04-05T11:47:52;-9457.06;;;1.66;100.00
9460;BME280;4768;42.664;23.240;2023-04-05T11:50:21;-9463.13;;;1.87;100.00
9460;BME280;4768;42.664;23.240;2023-04-05T11:53:09;-9460.72;;;1.79;100.00
9460;BME280;4768;42.664;23.240;2023-04-05T11:55:36;-9468.47;;;2.06;100.00
9460;BME280;4768;42.664;23.240;2023-04-05T11:58:10;-9456.91;;;1.65;100.00
9460;BME280;4768;42.664;23.240;2023-04-05T12:00:37;-9464.53;;;1.92;100.00
9460;BME280;4768;42.664;23.240;2023-04-05T12:03:04;-9470.16;;;2.12;100.00
9460;BME280;4768;42.664;23.240;2023-04-05T12:05:45;-9465.66;;;1.96;100.00
9460;BME280;4768;42.664;23.240;2023-04-05T12:08:12;-9464.38;;;1.92;100.00
9460;BME280;4768;42.664;23.240;2023-04-05T12:10:39;-9461.69;;;1.82;100.00
9460;BME280;4768;42.664;23.240;2023-04-05T12:13:06;-9458.19;;;1.70;100.00
9460;BME280;4768;42.664;23.240;2023-04-05T12:15:36;-9463.41;;;1.88;100.00
9460;BME280;4768;42.664;23.240;2023-04-05T12:18:03;-9461.84;;;1.83;100.00
9460;BME280;4768;42.664;23.240;2023-04-05T12:20:32;-9461.69;;;1.82;100.00
9460;BME280;4768;42.664;23.240;2023-04-05T12:23:02;-9461.28;;;1.81;100.00
9460;BME280;4768;42.664;23.240;2023-04-05T12:25:29;-9459.72;;;1.75;100.00
9460;BME280;4768;42.664;23.240;2023-04-05T12:27:56;-9456.06;;;1.62;100.00
9460;BME280;4768;42.664;23.240;2023-04-05T12:30:29;-9458.88;;;1.72;100.00
9460;BME280;4768;42.664;23.240;2023-04-05T12:33:06;-9460.16;;;1.77;100.00
9460;BME280;4768;42.664;23.240;2023-04-05T12:35:33;-9455.22;;;1.59;100.00
9460;BME280;4768;42.664;23.240;2023-04-05T12:38:02;-9469.59;;;2.10;100.00
9460;BME280;4768;42.664;23.240;2023-04-05T12:40:31;-9462.25;;;1.84;100.00
9460;BME280;4768;42.664;23.240;2023-04-05T12:43:03;-9466.78;;;2.00;100.00
9460;BME280;4768;42.664;23.240;2023-04-05T12:45:30;-9472.28;;;2.19;100.00
9460;BME280;4768;42.664;23.240;2023-04-05T12:48:07;-9469.75;;;2.10;100.00
9460;BME280;4768;42.664;23.240;2023-04-05T12:50:34;-9470.72;;;2.14;100.00
9460;BME280;4768;42.664;23.240;2023-04-05T12:53:04;-9458.47;;;1.71;100.00
9460;BME280;4768;42.664;23.240;2023-04-05T12:55:37;-9455.91;;;1.62;100.00
9460;BME280;4768;42.664;23.240;2023-04-05T12:58:08;-9448.59;;;1.36;100.00
9460;BME280;4768;42.664;23.240;2023-04-05T13:00:35;-9453.25;;;1.52;100.00
9460;BME280;4768;42.664;23.240;2023-04-05T13:03:01;-9446.63;;;1.29;100.00
9460;BME280;4768;42.664;23.240;2023-04-05T13:05:29;-9445.06;;;1.24;100.00
9460;BME280;4768;42.664;23.240;2023-04-05T13:07:56;-9455.91;;;1.62;100.00
9460;BME280;4768;42.664;23.240;2023-04-05T13:10:24;-9466.22;;;1.98;100.00
9460;BME280;4768;42.664;23.240;2023-04-05T13:12:51;-9457.47;;;1.67;100.00
9460;BME280;4768;42.664;23.240;2023-04-05T13:15:18;-9467.22;;;2.01;100.00
9460;BME280;4768;42.664;23.240;2023-04-05T13:17:45;-9473.00;;;2.22;100.00
9460;BME280;4768;42.664;23.240;2023-04-05T13:20:14;-9467.34;;;2.02;100.00